Ostrander, MN (55961)

6:26 AM CDT on July 14, 2014 (GMT -0500)
Preston (KFKA) Elev 1276 ft | 43.68 °N, 92.17 °W | Change Station

Current weather conditions updated 15 minutes ago

Clear
Clear
55 °F
Feels Like 55 °F
N
8
Wind Variable Wind from WNW

Today is forecast to be Much Cooler than yesterday. Afternoon showers.

Today
High -- | Low -- °F
--% Chance of Precip.
Yesterday
High -- | Low -- °F
Precip. -- in
5:41 AM 8:49 PM
Waning Gibbous, 94% visible
Pressure 29.91 in
Visibility 10.0 miles
Clouds Clear
Dew Point 49 °F
Humidity 81%
Rainfall 0.00 in
Snow Depth Not available.
UV 0 out of 12
Pollen 3.20 out of 12
Air Quality Not available.
Flu Activity Sporadic
METAR KFKA 141111Z AUTO 29007KT 10SM CLR 13/10 A2991 RMK AO2 T01270096

More Conditions Fewer Conditions

Pressure 29.91 in
Visibility 10.0 miles
Clouds Clear
Dew Point 49 °F
Humidity 81%
Rainfall 0.00 in
Snow Depth Not available.
UV 0 out of 12
Pollen 3.20 out of 12
Air Quality Not available.
Flu Activity Sporadic
METAR KFKA 141111Z AUTO 29007KT 10SM CLR 13/10 A2991 RMK AO2 T01270096

More Conditions Fewer Conditions

10-Day Weather Forecast

Almanac

Astronomy

Jul. 14, 2014 Rise Set
Actual Time 5:41 AM CDT 8:49 PM CDT
Civil Twilight 5:06 AM CDT 9:23 PM CDT
Nautical Twilight 4:22 AM CDT 10:08 PM CDT
Astronomical Twilight 3:28 AM CDT 11:01 PM CDT
Moon 10:11 PM CDT 8:30 AM CDT
Length of Visible Light 16h 17m
Length of Day
15h 07m
Tomorrow will be 1m 31s shorter.
Waning Gibbous, 94% of the Moon is Illuminated
Today
Waning Gibbous
Jul 18
Last Quarter
Jul 26
New
Aug 3
First Quarter
Aug 10
Full

Today's Extremes

State Highs State Lows

Community

WunderPhotos

Upload Photos

1,733,611 photos uploaded!

Nearby

Snow Depth

Station Depth Elevation
No new snow has been reported.

Earthquake Activity

City Distance Mag. Time & Date
No recent earthquake activity has been reported nearby.
Minimum magnitude displayed is 2.5.

Coastal Water Temperatures

Place Temperature
No Stations Reporting

Nearby Weather Stations

Station Location Temp. Dew Point Humidity Wind Precip. Elev Updated Type
Stewartville, MN 53.7 °F 50 °F 86% West  at  0.0 mph 0.00 in / hr 1253 ft 6:19 AM CDT Normal
Steve's Weather Station, Grand Meadow, MN 53.9 °F 48 °F 79% WNW  at  0.0 mph 0.00 in / hr 1296 ft 6:22 AM CDT Normal
Eagle Bluff ELC, Lanesboro, MN 50.6 °F 51 °F 100% NNW  at  0.0 mph 0.00 in / hr 1003 ft 5:18 AM CDT Normal

Show More Stations Show Fewer Stations